Main page
METAR-TAF:

METAR-TAF

Airports :

Clayton Municipal Airpark

Clayton, New Mexico, United States

latitude: 36-26-54N, longitude: 103-09-11W, elevation: 4963 ft

Current weather observation

The report was made 1 hour and 3 minutes ago, at 01:55 UTC
Wind 15 mph from the Southeast
Temperature 79°F
Humidity 51%
Pressure 29.85 in. Hg
Visibility: 10 miles
Clear sky

METAR: KCAO 240155Z AUTO 14013KT 10SM CLR 26/15 A2985 RMK AO2 SLP039 T02610150

Time: 20:58 (02:58 UTC)


TAF: missing

Weather observations and forecasts of more than 4000 airports (METAR and TAF reports).

The available stations are represented by yellow and red dots on the map.

Hover mouse over dot to see the name of the station.

Then click to see weather observations and forecasts.

To change the map : click on the green buttons with a black cross to zoom in, on the green button with a dash to zoom out, or on the green arrows for adjacent maps.


METAR-TAF: